Time;durP1;ratioP1;P1;durP2;ratioP2;P2;SDS_P1;SDS_P2;PMS_P1;PMS_P2;Temp;Humidity;BMP_temperature;BMP_pressure;BME280_temperature;BME280_humidity;BME280_pressure;Samples;Min_cycle;Max_cycle;Signal;HPM_P1;HPM_P2
2021/10/22 00:00:16;;;;;;;10.00;3.17;;;7.70;99.90;;;;;;5054198;28;20424;-78
2021/10/22 00:02:43;;;;;;;14.05;3.58;;;7.60;99.90;;;;;;5054254;28;20098;-78
2021/10/22 00:05:08;;;;;;;;;;;7.60;99.90;;;;;;5054551;28;20500;-78
2021/10/22 00:07:35;;;;;;;10.80;3.35;;;7.50;99.90;;;;;;5054140;28;19921;-79
2021/10/22 00:10:02;;;;;;;11.48;3.70;;;7.60;99.90;;;;;;5054168;28;20033;-79
2021/10/22 00:12:28;;;;;;;18.77;6.25;;;7.60;99.90;;;;;;5053977;28;20013;-79
2021/10/22 00:14:53;;;;;;;10.40;3.10;;;7.50;99.90;;;;;;5053966;28;20082;-78
2021/10/22 00:17:19;;;;;;;9.63;2.92;;;7.90;99.90;;;;;;5054421;28;20021;-78
2021/10/22 00:19:45;;;;;;;13.77;4.53;;;7.80;99.90;;;;;;5053856;28;20074;-78
2021/10/22 00:22:11;;;;;;;12.18;3.33;;;7.40;99.90;;;;;;5053962;28;20030;-78
2021/10/22 00:24:37;;;;;;;11.55;4.43;;;7.60;99.90;;;;;;5053762;28;20095;-78
2021/10/22 00:27:03;;;;;;;18.05;6.35;;;7.80;99.90;;;;;;5052409;28;20525;-78
2021/10/22 00:29:29;;;;;;;18.92;7.57;;;7.40;99.90;;;;;;5053603;28;20021;-78
2021/10/22 00:31:55;;;;;;;16.65;5.85;;;7.30;99.90;;;;;;5053776;28;20025;-78
2021/10/22 00:34:20;;;;;;;18.40;5.20;;;7.50;99.90;;;;;;5053624;28;20021;-78
2021/10/22 00:36:46;;;;;;;14.77;4.07;;;7.70;99.90;;;;;;5052241;28;20040;-78
2021/10/22 00:39:12;;;;;;;8.93;3.10;;;7.80;99.90;;;;;;5053648;28;20021;-78
2021/10/22 00:41:39;;;;;;;9.18;3.08;;;7.80;99.90;;;;;;5053481;28;20037;-78
2021/10/22 00:44:05;;;;;;;7.80;2.67;;;7.50;99.90;;;;;;5053454;28;20151;-77
2021/10/22 00:46:33;;;;;;;11.43;2.88;;;7.40;99.90;;;;;;5053227;28;20063;-77
2021/10/22 00:48:58;;;;;;;9.60;2.80;;;7.40;99.90;;;;;;5053708;28;20025;-79
2021/10/22 00:51:27;;;;;;;8.68;2.60;;;7.60;99.90;;;;;;5053325;28;20047;-77
2021/10/22 00:53:53;;;;;;;7.97;2.63;;;7.70;99.90;;;;;;5052059;28;20107;-78
2021/10/22 00:56:18;;;;;;;15.60;2.97;;;7.50;99.90;;;;;;5053358;28;20025;-78
2021/10/22 00:58:46;;;;;;;11.88;2.53;;;7.20;99.90;;;;;;5053344;28;20032;-78
2021/10/22 01:01:12;;;;;;;11.38;2.80;;;7.00;99.90;;;;;;5053470;28;20058;-77
2021/10/22 01:03:38;;;;;;;7.68;2.47;;;7.00;99.90;;;;;;5051796;28;20021;-77
2021/10/22 01:06:04;;;;;;;8.52;3.00;;;7.30;99.90;;;;;;5051893;28;20033;-77
2021/10/22 01:08:31;;;;;;;8.50;2.53;;;7.30;99.90;;;;;;5052734;28;20487;-77
2021/10/22 01:10:59;;;;;;;9.02;1.98;;;7.30;99.90;;;;;;5053123;28;20021;-78
2021/10/22 01:13:25;;;;;;;11.98;2.30;;;7.40;99.90;;;;;;5053038;28;20045;-78
2021/10/22 01:15:51;;;;;;;7.53;2.25;;;7.20;99.90;;;;;;5053367;28;20074;-78
2021/10/22 01:18:17;;;;;;;10.48;2.97;;;7.00;99.90;;;;;;5053057;28;20104;-78
2021/10/22 01:20:43;;;;;;;9.82;2.75;;;7.30;99.90;;;;;;5053145;28;20032;-77
2021/10/22 01:23:10;;;;;;;10.73;2.92;;;7.20;99.90;;;;;;5051799;28;20033;-78
2021/10/22 01:25:36;;;;;;;9.80;2.33;;;7.10;99.90;;;;;;5053022;28;20021;-78
2021/10/22 01:28:03;;;;;;;8.93;2.70;;;7.10;99.90;;;;;;5052941;28;20386;-77
2021/10/22 01:30:31;;;;;;;7.32;2.70;;;7.00;99.90;;;;;;5053055;28;20025;-78
2021/10/22 01:33:03;;;;;;;9.95;2.55;;;7.20;99.90;;;;;;5051679;28;20074;-78
2021/10/22 01:35:29;;;;;;;7.85;2.53;;;7.30;99.90;;;;;;5053091;28;20025;-78
2021/10/22 01:37:55;;;;;;;10.18;3.10;;;7.00;99.90;;;;;;5053049;28;20083;-78
2021/10/22 01:40:21;;;;;;;10.50;2.88;;;6.80;99.90;;;;;;5052948;28;20029;-78
2021/10/22 01:42:47;;;;;;;16.35;3.13;;;6.60;99.90;;;;;;5052900;28;20023;-78
2021/10/22 01:45:13;;;;;;;12.40;3.33;;;6.50;99.90;;;;;;5052885;28;20027;-77
2021/10/22 01:47:39;;;;;;;10.48;2.83;;;6.40;99.90;;;;;;5053147;28;20017;-77
2021/10/22 01:50:07;;;;;;;13.05;3.05;;;6.40;99.90;;;;;;5052881;28;20036;-78
2021/10/22 01:52:33;;;;;;;8.43;2.72;;;6.50;99.90;;;;;;5052741;28;20117;-78
2021/10/22 01:54:58;;;;;;;10.20;2.67;;;6.80;99.90;;;;;;5052728;28;20082;-79
2021/10/22 01:57:28;;;;;;;8.50;2.92;;;7.00;99.90;;;;;;5051383;28;20033;-78
2021/10/22 01:59:54;;;;;;;10.60;2.70;;;7.00;99.90;;;;;;5051343;28;20397;-78
2021/10/22 02:02:20;;;;;;;7.20;2.50;;;6.90;99.90;;;;;;5051374;28;20025;-78
2021/10/22 02:04:45;;;;;;;8.00;2.28;;;6.90;99.90;;;;;;5052631;28;20057;-77
2021/10/22 02:07:11;;;;;;;5.63;2.13;;;7.00;99.90;;;;;;5052616;28;20027;-77
2021/10/22 02:09:38;;;;;;;6.95;2.20;;;6.80;99.90;;;;;;5051080;28;20509;-78
2021/10/22 02:12:05;;;;;;;7.43;2.63;;;6.70;99.90;;;;;;5052497;28;20072;-78
2021/10/22 02:14:31;;;;;;;6.82;2.60;;;6.50;99.90;;;;;;5052561;28;20489;-78
2021/10/22 02:16:57;;;;;;;8.98;2.70;;;6.30;99.90;;;;;;5055236;28;20017;-78
2021/10/22 02:19:23;;;;;;;;;;;6.30;99.90;;;;;;5055238;28;20037;-78
2021/10/22 02:21:49;;;;;;;9.60;2.83;;;6.20;99.90;;;;;;5056348;28;19926;-78
2021/10/22 02:24:14;;;;;;;11.05;3.00;;;6.10;99.90;;;;;;5056076;28;20086;-78
2021/10/22 02:26:40;;;;;;;7.45;2.80;;;6.30;99.90;;;;;;5055961;28;20082;-77
2021/10/22 02:29:06;;;;;;;10.75;3.05;;;6.40;99.90;;;;;;5055878;28;20036;-78
2021/10/22 02:31:31;;;;;;;11.25;2.90;;;6.50;99.90;;;;;;5055931;28;20029;-78
2021/10/22 02:33:57;;;;;;;7.45;2.63;;;6.80;99.90;;;;;;5055884;28;20021;-77
2021/10/22 02:36:23;;;;;;;8.63;2.80;;;6.90;99.90;;;;;;5055813;28;20450;-78
2021/10/22 02:38:49;;;;;;;9.90;2.70;;;6.60;99.90;;;;;;5055719;28;20023;-78
2021/10/22 02:41:15;;;;;;;9.98;2.85;;;6.40;99.90;;;;;;5055699;28;20029;-77
2021/10/22 02:43:41;;;;;;;;;;;6.30;99.90;;;;;;5054814;28;20053;-77
2021/10/22 02:46:07;;;;;;;8.60;3.00;;;6.50;99.90;;;;;;5055644;28;19905;-78
2021/10/22 02:48:33;;;;;;;8.40;2.42;;;6.50;99.90;;;;;;5055614;28;20083;-77
2021/10/22 02:50:59;;;;;;;9.38;2.78;;;6.40;99.90;;;;;;5055621;28;20029;-78
2021/10/22 02:53:25;;;;;;;9.23;2.83;;;6.40;99.90;;;;;;5054284;28;20388;-77
2021/10/22 02:55:51;;;;;;;10.68;3.20;;;6.60;99.90;;;;;;5055457;28;20029;-78
2021/10/22 02:58:17;;;;;;;9.75;3.00;;;6.60;99.90;;;;;;5054139;28;20120;-78
2021/10/22 03:00:43;;;;;;;9.07;2.85;;;6.40;99.90;;;;;;5055460;28;20112;-77
2021/10/22 03:03:09;;;;;;;8.98;2.90;;;6.60;99.90;;;;;;5055309;28;20028;-78
2021/10/22 03:05:34;;;;;;;8.02;2.42;;;6.70;99.90;;;;;;5055634;28;20389;-78
2021/10/22 03:08:00;;;;;;;8.20;2.50;;;6.80;99.90;;;;;;5055039;28;20045;-78
2021/10/22 03:10:26;;;;;;;9.55;2.30;;;6.60;99.90;;;;;;5055230;28;20021;-78
2021/10/22 03:12:52;;;;;;;9.05;2.78;;;6.60;99.90;;;;;;5055147;28;20017;-78
2021/10/22 03:15:18;;;;;;;6.38;2.25;;;6.50;99.90;;;;;;5053841;28;20048;-78
2021/10/22 03:17:44;;;;;;;13.38;2.80;;;6.40;99.90;;;;;;5055068;28;20485;-77
2021/10/22 03:20:11;;;;;;;5.78;2.25;;;6.40;99.90;;;;;;5055060;28;20024;-78
2021/10/22 03:22:38;;;;;;;6.68;2.10;;;6.40;99.90;;;;;;5053713;28;20028;-78
2021/10/22 03:25:05;;;;;;;7.45;2.40;;;6.60;99.90;;;;;;5054928;28;20025;-78
2021/10/22 03:27:32;;;;;;;8.32;2.28;;;6.60;99.90;;;;;;5053542;28;20485;-77
2021/10/22 03:29:58;;;;;;;8.45;2.70;;;6.30;99.90;;;;;;5054707;28;20067;-78
2021/10/22 03:32:24;;;;;;;9.50;3.05;;;6.20;99.90;;;;;;5054855;28;20029;-77
2021/10/22 03:34:50;;;;;;;11.52;3.03;;;6.20;99.90;;;;;;5054787;28;20025;-77
2021/10/22 03:37:15;;;;;;;10.82;3.20;;;6.30;99.90;;;;;;5053382;28;20021;-78
2021/10/22 03:39:42;;;;;;;10.15;3.30;;;6.40;99.90;;;;;;5054704;28;20078;-78
2021/10/22 03:42:08;;;;;;;14.95;3.97;;;6.40;99.90;;;;;;5054653;28;20079;-78
2021/10/22 03:44:35;;;;;;;11.68;3.60;;;6.20;99.90;;;;;;5053284;28;20020;-78
2021/10/22 03:47:00;;;;;;;11.07;3.90;;;6.20;99.90;;;;;;5054501;28;20125;-78
2021/10/22 03:49:26;;;;;;;12.20;3.58;;;6.30;99.90;;;;;;5053085;28;20541;-78
2021/10/22 03:51:53;;;;;;;25.00;7.80;;;6.20;99.90;;;;;;5054470;28;20482;-77
2021/10/22 03:54:19;;;;;;;42.97;11.50;;;6.30;99.90;;;;;;5054428;28;20021;-77
2021/10/22 03:56:45;;;;;;;30.40;10.15;;;6.30;99.90;;;;;;5054732;28;20028;-77
2021/10/22 03:59:11;;;;;;;29.10;10.00;;;6.30;99.90;;;;;;5054311;28;20025;-78
2021/10/22 04:01:36;;;;;;;20.70;6.60;;;6.40;99.90;;;;;;5052999;28;20025;-78
2021/10/22 04:04:02;;;;;;;16.45;4.70;;;6.30;99.90;;;;;;5054338;28;20025;-78
2021/10/22 04:06:28;;;;;;;15.45;4.80;;;6.20;99.90;;;;;;5054170;28;20056;-78
2021/10/22 04:08:54;;;;;;;14.50;4.45;;;6.40;99.90;;;;;;5053773;28;20120;-77
2021/10/22 04:11:20;;;;;;;14.27;4.43;;;6.50;99.90;;;;;;5054016;28;20056;-77
2021/10/22 04:13:45;;;;;;;18.15;4.78;;;6.40;99.90;;;;;;5054019;28;20029;-77
2021/10/22 04:16:11;;;;;;;19.05;4.57;;;6.20;99.90;;;;;;5053943;28;20027;-77
2021/10/22 04:18:37;;;;;;;15.23;5.32;;;6.00;99.90;;;;;;5052591;28;20362;-78
2021/10/22 04:21:03;;;;;;;17.63;5.57;;;6.00;99.90;;;;;;5053930;28;20033;-78
2021/10/22 04:23:29;;;;;;;24.13;6.10;;;6.20;99.90;;;;;;5053856;28;20400;-78
2021/10/22 04:25:54;;;;;;;18.63;6.05;;;6.20;99.90;;;;;;5053881;28;20032;-78
2021/10/22 04:28:21;;;;;;;22.02;6.82;;;6.00;99.90;;;;;;5052384;28;20075;-78
2021/10/22 04:30:47;;;;;;;23.75;6.22;;;6.10;99.90;;;;;;5053656;28;20040;-78
2021/10/22 04:33:13;;;;;;;23.30;7.95;;;6.20;99.90;;;;;;5053657;28;20017;-78
2021/10/22 04:35:38;;;;;;;24.42;7.97;;;6.20;99.90;;;;;;5053767;28;20025;-78
2021/10/22 04:40:30;;;;;;;20.15;6.75;;;6.20;99.90;;;;;;5053396;28;20074;-78
2021/10/22 04:41:02;;;;;;;29.63;11.73;;;6.30;99.90;;;;;;5053165;28;20029;-78
2021/10/22 04:43:28;;;;;;;19.45;6.45;;;6.30;99.90;;;;;;5051947;28;20084;-77
2021/10/22 04:45:54;;;;;;;29.33;9.73;;;6.20;99.90;;;;;;5052175;28;20037;-77
2021/10/22 04:48:20;;;;;;;29.13;11.45;;;6.10;99.90;;;;;;5053329;28;20029;-78
2021/10/22 04:50:52;;;;;;;25.02;9.05;;;5.80;99.90;;;;;;5052075;28;20021;-78
2021/10/22 04:53:22;;;;;;;22.02;7.25;;;5.80;99.90;;;;;;5051817;28;20017;-78
2021/10/22 04:55:48;;;;;;;29.58;8.98;;;5.90;99.90;;;;;;5053800;28;20017;-77
2021/10/22 04:58:14;;;;;;;38.50;12.02;;;5.80;99.90;;;;;;5053354;28;20410;-77
2021/10/22 05:00:40;;;;;;;37.65;11.10;;;5.90;99.90;;;;;;5053191;28;20028;-77
2021/10/22 05:03:05;;;;;;;29.98;9.85;;;6.10;99.90;;;;;;5051901;28;20025;-77
2021/10/22 05:05:31;;;;;;;38.40;11.80;;;6.20;99.90;;;;;;5053179;28;20457;-78
2021/10/22 05:07:57;;;;;;;34.88;12.35;;;6.00;99.90;;;;;;5052901;28;20049;-78
2021/10/22 05:10:23;;;;;;;28.08;11.38;;;5.80;99.90;;;;;;5053174;28;20516;-78
2021/10/22 05:12:49;;;;;;;31.92;10.45;;;6.00;99.90;;;;;;5053094;28;20025;-78
2021/10/22 05:15:14;;;;;;;28.65;9.15;;;6.20;99.90;;;;;;5053082;28;20094;-78
2021/10/22 05:17:40;;;;;;;21.88;7.80;;;6.20;99.90;;;;;;5053408;28;20025;-78
2021/10/22 05:20:09;;;;;;;32.05;8.50;;;6.10;99.90;;;;;;5053212;28;20393;-77
2021/10/22 05:22:36;;;;;;;30.52;8.88;;;6.10;99.90;;;;;;5053070;28;20074;-78
2021/10/22 05:25:03;;;;;;;28.15;9.25;;;6.20;99.90;;;;;;5051706;28;20047;-77
2021/10/22 05:27:29;;;;;;;15.82;5.93;;;6.00;99.90;;;;;;5051759;28;20167;-78
2021/10/22 05:29:55;;;;;;;18.13;5.10;;;6.00;99.90;;;;;;5052897;28;20104;-77
2021/10/22 05:32:21;;;;;;;14.38;4.07;;;5.90;99.90;;;;;;5052961;28;20032;-77
2021/10/22 05:34:47;;;;;;;26.63;11.55;;;5.80;99.90;;;;;;5052979;28;20025;-77
2021/10/22 05:37:12;;;;;;;17.15;6.47;;;5.70;99.90;;;;;;5053177;28;20029;-77
2021/10/22 05:39:38;;;;;;;20.20;6.90;;;5.50;99.90;;;;;;5053091;28;20021;-78
2021/10/22 05:42:04;;;;;;;12.55;5.68;;;5.50;99.90;;;;;;5052962;28;20392;-78
2021/10/22 05:44:30;;;;;;;9.13;3.65;;;5.70;99.90;;;;;;5051555;28;20029;-77
2021/10/22 05:46:56;;;;;;;17.30;4.90;;;5.80;99.90;;;;;;5052861;28;20033;-78
2021/10/22 05:49:22;;;;;;;;;;;6.00;99.90;;;;;;5053117;28;20029;-77
2021/10/22 05:51:50;;;;;;;11.40;3.97;;;6.00;99.90;;;;;;5055415;28;20314;-77
2021/10/22 05:54:16;;;;;;;10.13;3.60;;;6.00;99.90;;;;;;5055407;28;20108;-78
2021/10/22 05:56:41;;;;;;;13.23;3.67;;;5.80;99.90;;;;;;5056548;28;20068;-77
2021/10/22 05:59:08;;;;;;;11.95;3.58;;;5.50;99.90;;;;;;5055278;28;20558;-77
2021/10/22 06:01:34;;;;;;;11.65;3.17;;;5.50;99.90;;;;;;5055119;28;20070;-77
2021/10/22 06:04:00;;;;;;;15.75;4.18;;;5.60;99.90;;;;;;5056513;28;20428;-78
2021/10/22 06:06:26;;;;;;;14.63;4.30;;;5.60;99.90;;;;;;5056449;28;20025;-79
2021/10/22 06:08:53;;;;;;;70.63;8.15;;;5.80;99.90;;;;;;5056108;28;20411;-78
2021/10/22 06:11:19;;;;;;;21.05;5.18;;;5.90;99.90;;;;;;5056463;28;20024;-78
2021/10/22 06:13:46;;;;;;;16.52;5.13;;;5.60;99.90;;;;;;5056234;28;20025;-78
2021/10/22 06:16:12;;;;;;;;;;;5.70;99.90;;;;;;5056629;28;20017;-77
2021/10/22 06:18:46;;;;;;;16.15;4.90;;;5.70;99.90;;;;;;5056165;28;20260;-79
2021/10/22 06:21:28;;;;;;;13.68;5.20;;;5.80;99.90;;;;;;5054687;28;20191;-78
2021/10/22 06:23:56;;;;;;;23.13;5.97;;;5.70;99.90;;;;;;5054588;28;20029;-78
2021/10/22 06:26:23;;;;;;;27.50;6.32;;;5.80;99.90;;;;;;5054775;28;20029;-78
2021/10/22 06:28:50;;;;;;;18.83;6.63;;;5.70;99.90;;;;;;5055948;28;20028;-78
2021/10/22 06:31:15;;;;;;;20.92;6.43;;;5.50;99.90;;;;;;5054677;28;20029;-78
2021/10/22 06:33:41;;;;;;;29.92;7.07;;;5.40;99.90;;;;;;5054545;28;20043;-78
2021/10/22 06:36:08;;;;;;;30.23;7.72;;;5.60;99.90;;;;;;5055769;28;20469;-77
2021/10/22 06:38:34;;;;;;;27.17;10.07;;;5.50;99.90;;;;;;5055972;28;20048;-77
2021/10/22 06:41:01;;;;;;;19.45;7.10;;;5.30;99.90;;;;;;5054162;28;20029;-78
2021/10/22 06:43:28;;;;;;;14.38;5.22;;;5.50;99.90;;;;;;5055691;28;20024;-79
2021/10/22 06:45:53;;;;;;;;;;;5.60;99.90;;;;;;5054831;28;20407;-78
2021/10/22 06:48:20;;;;;;;12.75;4.22;;;5.70;99.90;;;;;;5054276;28;19909;-78
2021/10/22 06:50:46;;;;;;;;;;;5.70;99.90;;;;;;5054726;28;20025;-78
2021/10/22 06:53:12;;;;;;;14.13;3.40;;;5.70;99.90;;;;;;5055766;28;20361;-78
2021/10/22 06:55:38;;;;;;;12.65;4.05;;;5.80;99.90;;;;;;5055491;28;20087;-78
2021/10/22 06:58:05;;;;;;;13.48;4.20;;;5.60;99.90;;;;;;5054457;28;20405;-78
2021/10/22 07:00:31;;;;;;;14.35;5.00;;;5.50;99.90;;;;;;5055630;28;20029;-78
2021/10/22 07:02:58;;;;;;;12.43;3.58;;;5.60;99.90;;;;;;5055554;28;20021;-79
2021/10/22 07:07:51;;;;;;;29.10;9.63;;;5.70;99.90;;;;;;5055004;28;20037;-78
2021/10/22 07:10:18;;;;;;;19.77;7.63;;;5.70;99.90;;;;;;5053835;28;20382;-79
2021/10/22 07:12:44;;;;;;;15.63;5.35;;;6.10;99.90;;;;;;5055091;28;20025;-78
2021/10/22 07:15:09;;;;;;;23.30;7.25;;;6.50;99.90;;;;;;5055147;28;20024;-79
2021/10/22 07:17:35;;;;;;;23.58;8.13;;;6.70;99.90;;;;;;5054965;28;20542;-78
2021/10/22 07:20:01;;;;;;;26.00;8.07;;;7.30;99.90;;;;;;5055226;28;20036;-78
2021/10/22 07:22:34;;;;;;;26.55;8.60;;;8.10;99.90;;;;;;5053562;28;20028;-79
2021/10/22 07:25:00;;;;;;;31.70;9.93;;;8.90;99.90;;;;;;5053295;28;20031;-79
2021/10/22 07:27:26;;;;;;;33.05;9.95;;;9.70;98.10;;;;;;5054877;28;20025;-79
2021/10/22 07:29:52;;;;;;;30.88;8.40;;;10.30;96.40;;;;;;5053408;28;20133;-79
2021/10/22 07:32:18;;;;;;;;;;;10.80;95.50;;;;;;5055450;28;20052;-79
2021/10/22 07:34:44;;;;;;;20.20;6.90;;;11.50;94.20;;;;;;5053428;28;20395;-79
2021/10/22 07:37:09;;;;;;;;;;;11.80;92.10;;;;;;5055304;28;20033;-79
2021/10/22 07:39:36;;;;;;;21.67;7.00;;;12.20;91.50;;;;;;5053242;28;19951;-78
2021/10/22 07:42:02;;;;;;;19.23;6.55;;;12.20;90.10;;;;;;5054562;28;20029;-79
2021/10/22 07:44:29;;;;;;;16.98;6.60;;;11.40;91.40;;;;;;5054508;28;20124;-79
2021/10/22 07:46:57;;;;;;;13.10;5.70;;;10.90;92.80;;;;;;5054419;28;20044;-79
2021/10/22 07:49:23;;;;;;;17.48;5.03;;;11.30;93.60;;;;;;5054578;28;20534;-79
2021/10/22 07:51:50;;;;;;;12.77;4.57;;;11.60;93.20;;;;;;5054351;28;20114;-79
2021/10/22 07:54:15;;;;;;;10.68;4.03;;;12.50;91.90;;;;;;5054348;28;20028;-79
2021/10/22 07:56:44;;;;;;;11.75;3.58;;;13.40;91.80;;;;;;5054553;28;20014;-80
2021/10/22 07:59:11;;;;;;;14.80;4.22;;;14.90;88.60;;;;;;5054253;28;20025;-79
2021/10/22 08:01:37;;;;;;;13.00;3.88;;;16.10;82.90;;;;;;5054284;28;20512;-79
2021/10/22 08:04:04;;;;;;;16.30;4.70;;;16.50;79.10;;;;;;5054224;28;20032;-80
2021/10/22 08:06:31;;;;;;;21.20;4.78;;;16.90;76.60;;;;;;5054389;28;20432;-78
2021/10/22 08:08:57;;;;;;;9.85;3.42;;;17.20;75.00;;;;;;5054016;28;20081;-79
2021/10/22 08:11:23;;;;;;;12.85;4.10;;;17.60;74.40;;;;;;5052789;28;20049;-79
2021/10/22 08:13:50;;;;;;;10.93;3.90;;;18.30;72.40;;;;;;5053385;28;20027;-79
2021/10/22 08:16:16;;;;;;;9.60;3.70;;;18.90;71.30;;;;;;5053967;28;20477;-80
2021/10/22 08:18:42;;;;;;;12.27;4.13;;;19.60;69.10;;;;;;5053965;28;20025;-80
2021/10/22 08:21:22;;;;;;;10.55;4.20;;;19.70;68.30;;;;;;5053841;28;20454;-80
2021/10/22 08:23:49;;;;;;;13.20;4.18;;;20.20;65.60;;;;;;5052298;28;20029;-80
2021/10/22 08:26:16;;;;;;;10.15;3.55;;;20.90;65.60;;;;;;5053828;28;20037;-79
2021/10/22 08:28:44;;;;;;;9.98;3.58;;;21.40;62.90;;;;;;5052411;28;20386;-80
2021/10/22 08:31:09;;;;;;;11.15;3.58;;;21.40;62.50;;;;;;5053665;28;20071;-80
2021/10/22 08:33:35;;;;;;;9.60;3.65;;;21.70;62.20;;;;;;5053748;28;20385;-79
2021/10/22 08:36:03;;;;;;;10.25;3.47;;;22.20;61.50;;;;;;5054116;28;20043;-80
2021/10/22 08:38:29;;;;;;;9.85;3.65;;;23.10;60.00;;;;;;5052246;28;20485;-81
2021/10/22 08:40:56;;;;;;;10.43;3.60;;;23.50;58.80;;;;;;5052283;28;20040;-80
2021/10/22 08:43:25;;;;;;;19.23;3.97;;;23.50;58.60;;;;;;5053793;28;20508;-80
2021/10/22 08:45:54;;;;;;;11.10;3.20;;;24.10;57.40;;;;;;5053475;28;20021;-80
2021/10/22 08:48:20;;;;;;;10.70;3.42;;;24.20;57.80;;;;;;5053914;28;20036;-80
2021/10/22 08:50:46;;;;;;;9.32;3.42;;;24.90;55.60;;;;;;5052081;28;20489;-78
2021/10/22 08:53:12;;;;;;;10.30;3.40;;;23.90;57.90;;;;;;5053327;28;20025;-78
2021/10/22 08:55:38;;;;;;;10.05;3.60;;;25.40;55.50;;;;;;5053330;28;20021;-78
2021/10/22 08:58:04;;;;;;;10.77;3.50;;;26.50;54.50;;;;;;5052048;28;20116;-78
2021/10/22 09:00:30;;;;;;;10.48;3.35;;;26.70;53.10;;;;;;5053317;28;20500;-78
2021/10/22 09:03:10;;;;;;;7.97;3.67;;;27.30;53.40;;;;;;5053226;28;20029;-78
2021/10/22 09:05:37;;;;;;;11.13;3.65;;;27.60;52.60;;;;;;5053501;28;20112;-78
2021/10/22 09:08:05;;;;;;;9.27;3.58;;;26.90;51.90;;;;;;5052813;28;20048;-78
2021/10/22 09:10:33;;;;;;;10.27;3.65;;;27.70;52.40;;;;;;5053072;28;20070;-78
2021/10/22 09:13:09;;;;;;;11.48;3.72;;;28.20;51.50;;;;;;5051729;28;20104;-78
2021/10/22 09:15:41;;;;;;;12.13;4.05;;;28.60;51.70;;;;;;5051804;28;20082;-79
2021/10/22 09:18:17;;;;;;;9.95;3.75;;;29.20;50.70;;;;;;5051755;28;20021;-78
2021/10/22 09:20:52;;;;;;;12.63;4.55;;;29.10;50.10;;;;;;5053323;28;20025;-79
2021/10/22 09:23:34;;;;;;;9.63;3.70;;;28.60;50.80;;;;;;5053179;28;20020;-78
2021/10/22 09:26:26;;;;;;;11.00;3.50;;;28.80;50.10;;;;;;5056263;28;20056;-79
2021/10/22 09:28:53;;;;;;;12.23;3.60;;;30.10;49.90;;;;;;5057466;28;20104;-79
2021/10/22 09:31:20;;;;;;;10.05;3.40;;;30.70;48.60;;;;;;5057327;28;20017;-78
2021/10/22 09:33:53;;;;;;;12.40;3.60;;;30.40;48.30;;;;;;5057275;28;20017;-78
2021/10/22 09:36:32;;;;;;;12.82;3.60;;;30.40;48.70;;;;;;5055442;28;20056;-79
2021/10/22 09:39:18;;;;;;;11.35;3.22;;;30.90;48.30;;;;;;5057079;28;20029;-79
2021/10/22 09:41:55;;;;;;;10.50;3.50;;;29.70;47.90;;;;;;5057046;28;20044;-79
2021/10/22 09:44:26;;;;;;;9.20;3.40;;;30.70;47.70;;;;;;5057133;28;20017;-79
2021/10/22 09:47:04;;;;;;;10.95;3.45;;;30.90;47.50;;;;;;5055361;28;20025;-78
2021/10/22 09:49:34;;;;;;;11.90;3.90;;;31.10;47.70;;;;;;5056756;28;20155;-78
2021/10/22 09:52:01;;;;;;;11.48;3.75;;;31.40;46.20;;;;;;5057068;28;20029;-79
2021/10/22 09:54:31;;;;;;;11.43;3.80;;;31.00;47.40;;;;;;5056758;28;20025;-79
2021/10/22 09:57:04;;;;;;;9.23;3.83;;;32.40;46.30;;;;;;5056929;28;20053;-79
2021/10/22 09:59:32;;;;;;;9.70;3.70;;;32.50;45.20;;;;;;5054855;28;20467;-79
2021/10/22 10:02:02;;;;;;;9.55;3.78;;;32.20;45.90;;;;;;5056525;28;20021;-79
2021/10/22 10:04:31;;;;;;;12.73;4.30;;;31.70;45.60;;;;;;5057014;28;20025;-79
2021/10/22 10:06:58;;;;;;;8.93;3.80;;;33.20;45.60;;;;;;5056447;28;20567;-79
2021/10/22 10:09:28;;;;;;;14.57;4.47;;;33.80;45.00;;;;;;5054735;28;20402;-79
2021/10/22 10:11:58;;;;;;;7.90;3.70;;;34.10;43.80;;;;;;5056362;28;20057;-79
2021/10/22 10:14:30;;;;;;;16.70;4.85;;;33.80;44.00;;;;;;5054855;28;20413;-79
2021/10/22 10:16:58;;;;;;;11.23;4.72;;;33.40;42.70;;;;;;5056459;28;20485;-80
2021/10/22 10:19:30;;;;;;;10.02;4.00;;;33.00;43.10;;;;;;5056349;28;20033;-79
2021/10/22 10:22:00;;;;;;;10.18;4.03;;;32.80;44.40;;;;;;5056740;28;20076;-79
2021/10/22 10:24:36;;;;;;;9.85;4.38;;;33.40;44.20;;;;;;5056197;28;20025;-79
2021/10/22 10:27:07;;;;;;;10.45;4.50;;;34.10;42.80;;;;;;5054678;28;20036;-80
2021/10/22 10:29:48;;;;;;;10.07;4.15;;;33.80;41.90;;;;;;5056190;28;20389;-79
2021/10/22 10:32:20;;;;;;;9.05;4.28;;;34.60;41.40;;;;;;5056397;28;20498;-79
2021/10/22 10:34:59;;;;;;;10.88;5.00;;;35.50;40.50;;;;;;5054461;28;20443;-79
2021/10/22 10:37:30;;;;;;;10.55;5.32;;;36.40;40.10;;;;;;5053802;28;20033;-79
2021/10/22 10:40:05;;;;;;;19.65;4.20;;;36.60;39.40;;;;;;5056391;28;20025;-79
2021/10/22 10:42:33;;;;;;;12.48;3.65;;;34.80;39.00;;;;;;5056218;28;20428;-79
2021/10/22 10:45:05;;;;;;;8.65;2.92;;;33.00;41.10;;;;;;5055848;28;20366;-79
2021/10/22 10:47:31;;;;;;;8.65;3.88;;;33.30;41.20;;;;;;5056110;28;20021;-79
2021/10/22 10:50:01;;;;;;;9.63;3.40;;;34.70;39.60;;;;;;5054576;28;20025;-79
2021/10/22 10:52:40;;;;;;;9.77;3.33;;;33.40;40.00;;;;;;5054326;28;20112;-78
2021/10/22 10:55:35;;;;;;;8.50;3.65;;;34.60;39.10;;;;;;5055632;28;20528;-79
2021/10/22 10:58:10;;;;;;;10.60;3.90;;;36.50;39.00;;;;;;5054150;28;20093;-80
2021/10/22 11:00:40;;;;;;;10.30;4.20;;;37.60;38.30;;;;;;5055852;28;20478;-79
2021/10/22 11:03:16;;;;;;;9.10;3.58;;;39.20;37.60;;;;;;5055582;28;20108;-79
2021/10/22 11:05:46;;;;;;;11.13;5.10;;;36.10;38.40;;;;;;5053867;28;20497;-79
2021/10/22 11:08:18;;;;;;;10.85;4.28;;;37.70;38.30;;;;;;5048106;28;20033;-79
2021/10/22 11:11:09;;;;;;;10.88;3.50;;;36.80;35.90;;;;;;5048376;28;20508;-79
2021/10/22 11:14:09;;;;;;;7.80;2.30;;;33.80;38.90;;;;;;5051400;28;20025;-78
2021/10/22 11:16:46;;;;;;;10.85;2.30;;;30.80;42.00;;;;;;5052456;28;20029;-78
2021/10/22 11:19:18;;;;;;;10.57;2.60;;;28.80;43.20;;;;;;5052154;28;20452;-77
2021/10/22 11:21:52;;;;;;;7.97;2.45;;;30.00;43.90;;;;;;5053026;28;20025;-79
2021/10/22 11:24:45;;;;;;;7.97;2.40;;;34.40;41.10;;;;;;5054358;28;20017;-79
2021/10/22 11:27:15;;;;;;;8.70;2.50;;;33.10;40.20;;;;;;5051926;28;20040;-78
2021/10/22 11:29:44;;;;;;;8.50;2.30;;;29.80;42.60;;;;;;5054215;28;20025;-78
2021/10/22 11:32:15;;;;;;;9.05;2.20;;;28.60;44.50;;;;;;5051645;28;20068;-78
2021/10/22 11:34:53;;;;;;;8.38;2.20;;;27.40;45.60;;;;;;5052837;28;20022;-78
2021/10/22 11:37:21;;;;;;;7.63;2.10;;;25.80;47.20;;;;;;5051536;28;20032;-78
2021/10/22 11:39:51;;;;;;;9.88;2.28;;;24.00;50.00;;;;;;5053918;28;20029;-78
2021/10/22 11:42:35;;;;;;;10.95;2.30;;;22.90;53.30;;;;;;5055132;28;20036;-78
2021/10/22 11:45:07;;;;;;;7.88;1.80;;;22.10;54.60;;;;;;5053090;28;20445;-78
2021/10/22 11:47:51;;;;;;;10.57;2.10;;;21.90;56.00;;;;;;5054121;28;20056;-79
2021/10/22 11:50:26;;;;;;;12.68;2.35;;;21.40;56.50;;;;;;5054542;28;20024;-78
2021/10/22 11:53:11;;;;;;;10.93;2.00;;;21.00;57.30;;;;;;5054709;28;20111;-78
2021/10/22 11:55:42;;;;;;;13.15;2.25;;;20.80;57.50;;;;;;5052864;28;20408;-78
2021/10/22 11:58:10;;;;;;;11.52;2.42;;;20.80;58.20;;;;;;5054264;28;20078;-78
2021/10/22 12:00:56;;;;;;;10.13;2.30;;;20.90;58.40;;;;;;5054260;28;20025;-78
2021/10/22 12:03:43;;;;;;;9.95;2.05;;;20.80;58.20;;;;;;5054835;28;20032;-78
2021/10/22 12:06:19;;;;;;;11.80;1.95;;;20.50;58.20;;;;;;5054115;28;20048;-77
2021/10/22 12:08:46;;;;;;;9.55;2.10;;;20.20;57.60;;;;;;5053841;28;20520;-78
2021/10/22 12:11:15;;;;;;;7.75;1.75;;;20.00;58.70;;;;;;5054083;28;20021;-78
2021/10/22 12:13:44;;;;;;;10.65;2.08;;;19.80;59.80;;;;;;5052780;28;20024;-78
2021/10/22 12:16:14;;;;;;;9.77;2.15;;;20.10;59.00;;;;;;5052737;28;20090;-77
2021/10/22 12:18:53;;;;;;;10.25;1.70;;;19.90;59.40;;;;;;5052419;28;20029;-78
2021/10/22 12:21:23;;;;;;;11.55;2.22;;;19.80;59.10;;;;;;5054243;28;20017;-78
2021/10/22 12:23:57;;;;;;;9.77;1.90;;;19.70;58.40;;;;;;5054170;28;20134;-78
2021/10/22 12:26:25;;;;;;;8.63;1.80;;;19.70;58.80;;;;;;5053810;28;20018;-79
2021/10/22 12:29:01;;;;;;;11.95;2.15;;;19.60;59.10;;;;;;5053924;28;20051;-78
2021/10/22 12:31:47;;;;;;;9.60;2.25;;;20.70;60.80;;;;;;5053762;28;20025;-78
2021/10/22 12:34:14;;;;;;;12.80;5.38;;;28.50;48.90;;;;;;5054040;28;20029;-79
2021/10/22 12:36:42;;;;;;;9.02;2.63;;;34.60;42.30;;;;;;5053760;28;20091;-78
2021/10/22 12:39:25;;;;;;;9.82;2.63;;;33.90;38.90;;;;;;5052293;28;20052;-79
2021/10/22 12:41:51;;;;;;;8.37;2.20;;;32.20;39.30;;;;;;5052449;28;20426;-79
2021/10/22 12:44:18;;;;;;;7.20;2.00;;;30.40;42.50;;;;;;5053619;28;20021;-78
2021/10/22 12:46:55;;;;;;;11.68;2.40;;;28.90;43.50;;;;;;5052355;28;20036;-77
2021/10/22 12:49:29;;;;;;;9.57;2.20;;;26.90;45.80;;;;;;5053772;28;20024;-77
2021/10/22 12:51:59;;;;;;;10.57;2.30;;;25.40;46.60;;;;;;5053762;28;20405;-78
2021/10/22 12:54:25;;;;;;;10.95;2.00;;;24.50;48.50;;;;;;5051892;28;20036;-78
2021/10/22 12:57:00;;;;;;;9.52;2.08;;;23.40;50.20;;;;;;5053648;28;20028;-77